Time;durP1;ratioP1;P1;durP2;ratioP2;P2;SDS_P1;SDS_P2;PMS_P1;PMS_P2;Temp;Humidity;BMP_temperature;BMP_pressure;BME280_temperature;BME280_humidity;BME280_pressure;Samples;Min_cycle;Max_cycle;Signal;HPM_P1;HPM_P2
2023/01/04 00:00:02;;;;;;;;;;;;;;;4.32;100.00;100465.84;349968;28;5901;-74
2023/01/04 00:00:12;;;;;;;;;;;;;;;4.30;100.00;100463.25;350456;28;1204;-74
2023/01/04 00:00:23;;;;;;;;;;;;;;;4.31;100.00;100472.75;350570;28;3872;-74
2023/01/04 00:00:33;;;;;;;;;;;;;;;4.32;100.00;100471.03;348570;28;4180;-74
2023/01/04 00:00:43;;;;;;;;;;;;;;;4.31;100.00;100477.94;349273;28;5737;-75
2023/01/04 00:00:54;;;;;;;;;;;;;;;4.30;100.00;100465.84;352793;28;3697;-75
2023/01/04 00:01:04;;;;;;;;;;;;;;;4.30;100.00;100463.25;349602;27;4354;-74
2023/01/04 00:01:16;;;;;;;;;;;;;;;4.31;100.00;100469.31;348640;28;4075;-74
2023/01/04 00:01:26;;;;;;;;;;;;;;;4.31;100.00;100467.56;345769;28;5867;-74
2023/01/04 00:01:36;;;;;;;;;;;;;;;4.30;100.00;100468.44;347124;28;1299;-74
2023/01/04 00:01:46;;;;;;;;;;;;;;;4.30;100.00;100467.56;345049;28;4310;-74
2023/01/04 00:01:57;;;;;;;;;;;;;;;4.30;100.00;100467.56;351073;28;3828;-74
2023/01/04 00:02:07;;;;;;;;;;;;;;;4.28;100.00;100470.16;348262;28;4418;-75
2023/01/04 00:02:17;;;;;;;;;;;;;;;4.27;100.00;100470.16;350306;28;5799;-75
2023/01/04 00:02:27;;;;;;;;;;;;;;;4.26;100.00;100469.31;346210;28;4283;-74
2023/01/04 00:02:38;;;;;;;;;;;;;;;4.25;100.00;100474.47;347231;28;3848;-74
2023/01/04 00:02:48;;;;;;;;;;;;;;;4.25;100.00;100469.31;346706;28;4261;-73
2023/01/04 00:02:58;;;;;;;;;;;;;;;4.24;100.00;100463.25;345814;28;6476;-74
2023/01/04 00:03:08;;;;;;;;;;;;;;;4.24;100.00;100467.56;346473;28;1202;-75
2023/01/04 00:03:19;;;;;;;;;;;;;;;4.22;100.00;100470.16;344938;28;4885;-74
2023/01/04 00:03:30;;;;;;;;;;;;;;;4.22;100.00;100470.16;349826;28;6330;-74
2023/01/04 00:03:41;;;;;;;;;;;;;;;4.22;100.00;100469.31;345703;28;5728;-74
2023/01/04 00:03:51;;;;;;;;;;;;;;;4.22;100.00;100470.16;346365;28;1543;-75
2023/01/04 00:04:01;;;;;;;;;;;;;;;4.20;100.00;100469.31;341690;28;5891;-74
2023/01/04 00:04:11;;;;;;;;;;;;;;;4.22;100.00;100472.75;346882;28;3668;-74
2023/01/04 00:04:22;;;;;;;;;;;;;;;4.22;100.00;100475.34;348339;28;1184;-74
2023/01/04 00:04:32;;;;;;;;;;;;;;;4.22;100.00;100472.75;347761;28;3796;-74
2023/01/04 00:04:42;;;;;;;;;;;;;;;4.23;100.00;100471.03;345862;28;1195;-74
2023/01/04 00:04:52;;;;;;;;;;;;;;;4.23;100.00;100471.03;345616;28;4437;-74
2023/01/04 00:05:03;;;;;;;;;;;;;;;4.24;100.00;100472.75;343993;28;5280;-74
2023/01/04 00:05:13;;;;;;;;;;;;;;;4.23;100.00;100471.91;343553;28;1019;-73
2023/01/04 00:05:23;;;;;;;;;;;;;;;4.24;100.00;100473.63;339710;28;4315;-75
2023/01/04 00:05:33;;;;;;;;;;;;;;;4.24;100.00;100471.03;342387;28;948;-74
2023/01/04 00:05:44;;;;;;;;;;;;;;;4.25;100.00;100464.97;339003;28;5798;-74
2023/01/04 00:05:55;;;;;;;;;;;;;;;4.25;100.00;100464.97;341152;28;1289;-74
2023/01/04 00:06:05;;;;;;;;;;;;;;;4.27;100.00;100465.84;339479;28;3734;-74
2023/01/04 00:06:15;;;;;;;;;;;;;;;4.26;100.00;100469.31;343143;28;6558;-74
2023/01/04 00:06:26;;;;;;;;;;;;;;;4.26;100.00;100469.31;337884;28;7124;-75
2023/01/04 00:06:36;;;;;;;;;;;;;;;4.27;100.00;100468.44;334627;29;4188;-75
2023/01/04 00:06:46;;;;;;;;;;;;;;;4.27;100.00;100468.44;335308;29;4198;-74
2023/01/04 00:06:56;;;;;;;;;;;;;;;4.27;100.00;100468.44;338033;29;1544;-74
2023/01/04 00:07:07;;;;;;;;;;;;;;;4.29;100.00;100471.88;337660;29;6877;-74
2023/01/04 00:07:17;;;;;;;;;;;;;;;4.29;100.00;100471.88;338444;29;1060;-74
2023/01/04 00:07:28;;;;;;;;;;;;;;;4.30;100.00;100468.44;335970;29;4529;-74
2023/01/04 00:07:38;;;;;;;;;;;;;;;4.30;100.00;100467.56;338230;29;1189;-74
2023/01/04 00:07:48;;;;;;;;;;;;;;;4.31;100.00;100469.31;336447;28;6011;-74
2023/01/04 00:07:58;;;;;;;;;;;;;;;4.31;100.00;100461.53;343703;28;1346;-74
2023/01/04 00:08:08;;;;;;;;;;;;;;;4.32;100.00;100473.63;341757;28;6124;-74
2023/01/04 00:08:19;;;;;;;;;;;;;;;4.31;100.00;100470.16;340268;28;1904;-74
2023/01/04 00:08:29;;;;;;;;;;;;;;;4.31;100.00;100469.31;334934;29;4319;-74
2023/01/04 00:08:39;;;;;;;;;;;;;;;4.32;100.00;100471.03;334404;28;3310;-74
2023/01/04 00:08:49;;;;;;;;;;;;;;;4.29;100.00;100461.53;333199;29;5437;-74
2023/01/04 00:09:00;;;;;;;;;;;;;;;4.30;100.00;100468.44;329701;29;6036;-74
2023/01/04 00:09:10;;;;;;;;;;;;;;;4.31;100.00;100466.72;327852;29;4196;-75
2023/01/04 00:09:20;;;;;;;;;;;;;;;4.31;100.00;100466.72;326981;29;6188;-75
2023/01/04 00:09:30;;;;;;;;;;;;;;;4.30;100.00;100463.25;327732;29;5573;-75
2023/01/04 00:09:40;;;;;;;;;;;;;;;4.30;100.00;100464.97;330205;29;6475;-75
2023/01/04 00:09:51;;;;;;;;;;;;;;;4.28;100.00;100470.16;331373;29;4154;-74
2023/01/04 00:10:01;;;;;;;;;;;;;;;4.28;100.00;100469.31;328035;29;4968;-74
2023/01/04 00:10:11;;;;;;;;;;;;;;;4.26;100.00;100458.94;324907;30;4114;-73
2023/01/04 00:10:21;;;;;;;;;;;;;;;4.24;100.00;100463.25;318214;30;6006;-73
2023/01/04 00:10:31;;;;;;;;;;;;;;;4.24;100.00;100473.63;318332;30;3765;-73
2023/01/04 00:10:42;;;;;;;;;;;;;;;4.23;100.00;100463.25;318104;30;3692;-73
2023/01/04 00:10:52;;;;;;;;;;;;;;;4.23;100.00;100477.06;319544;30;2657;-73
2023/01/04 00:11:03;;;;;;;;;;;;;;;4.23;100.00;100461.53;315690;30;4448;-73
2023/01/04 00:11:17;;;;;;;;;;;;;;;4.23;100.00;100463.25;320068;30;814;-73
2023/01/04 00:11:27;;;;;;;;;;;;;;;4.23;100.00;100471.03;316610;31;843;-74
2023/01/04 00:11:38;;;;;;;;;;;;;;;4.22;100.00;100474.50;313946;31;1383;-74
2023/01/04 00:11:48;;;;;;;;;;;;;;;4.19;100.00;100470.19;312611;31;2089;-74
2023/01/04 00:11:58;;;;;;;;;;;;;;;4.20;100.00;100471.91;314066;31;886;-74
2023/01/04 00:12:09;;;;;;;;;;;;;;;4.20;100.00;100471.03;313130;31;2721;-74
2023/01/04 00:12:19;;;;;;;;;;;;;;;4.19;100.00;100475.34;312636;31;2912;-74
2023/01/04 00:12:29;;;;;;;;;;;;;;;4.18;100.00;100468.44;313990;31;1346;-74
2023/01/04 00:12:39;;;;;;;;;;;;;;;4.18;100.00;100472.75;312226;31;3229;-74
2023/01/04 00:12:50;;;;;;;;;;;;;;;4.15;100.00;100476.22;310111;31;3569;-74
2023/01/04 00:13:00;;;;;;;;;;;;;;;4.15;100.00;100473.63;308477;32;796;-74
2023/01/04 00:13:10;;;;;;;;;;;;;;;4.16;100.00;100475.34;308545;31;3440;-74
2023/01/04 00:13:20;;;;;;;;;;;;;;;4.12;100.00;100468.44;309790;31;3505;-74
2023/01/04 00:13:31;;;;;;;;;;;;;;;4.10;100.00;100474.50;310795;31;871;-75
2023/01/04 00:13:41;;;;;;;;;;;;;;;4.10;100.00;100477.94;311200;31;2454;-74
2023/01/04 00:13:52;;;;;;;;;;;;;;;4.10;100.00;100477.09;309655;31;2352;-74
2023/01/04 00:14:02;;;;;;;;;;;;;;;4.09;100.00;100484.00;308495;32;808;-74
2023/01/04 00:14:12;;;;;;;;;;;;;;;4.08;100.00;100471.03;309202;31;3029;-74
2023/01/04 00:14:22;;;;;;;;;;;;;;;4.09;100.00;100473.63;308372;31;3583;-74
2023/01/04 00:14:33;;;;;;;;;;;;;;;4.10;100.00;100471.91;307752;31;3879;-74
2023/01/04 00:14:43;;;;;;;;;;;;;;;4.10;100.00;100475.34;308518;32;1046;-74
2023/01/04 00:14:53;;;;;;;;;;;;;;;4.12;100.00;100477.94;306109;32;4366;-75
2023/01/04 00:15:03;;;;;;;;;;;;;;;4.13;100.00;100472.75;304511;32;4483;-75
2023/01/04 00:15:14;;;;;;;;;;;;;;;4.13;100.00;100472.75;304204;32;852;-75
2023/01/04 00:15:24;;;;;;;;;;;;;;;4.13;100.00;100472.75;302183;32;4542;-74
2023/01/04 00:15:34;;;;;;;;;;;;;;;4.15;100.00;100478.81;300362;32;4801;-74
2023/01/04 00:15:44;;;;;;;;;;;;;;;4.14;100.00;100477.09;303260;32;813;-74
2023/01/04 00:15:55;;;;;;;;;;;;;;;4.16;100.00;100475.34;301911;32;3493;-74
2023/01/04 00:16:06;;;;;;;;;;;;;;;4.16;100.00;100480.53;301100;32;3170;-74
2023/01/04 00:16:17;;;;;;;;;;;;;;;4.17;100.00;100476.22;302090;32;1229;-73
2023/01/04 00:16:27;;;;;;;;;;;;;;;4.17;100.00;100479.66;297396;32;4340;-73
2023/01/04 00:16:38;;;;;;;;;;;;;;;4.15;100.00;100481.41;299347;32;5159;-73
2023/01/04 00:16:48;;;;;;;;;;;;;;;4.15;100.00;100481.41;298924;32;5719;-73
2023/01/04 00:16:58;;;;;;;;;;;;;;;4.15;100.00;100478.81;299094;33;1389;-73
2023/01/04 00:17:08;;;;;;;;;;;;;;;4.16;100.00;100483.13;298243;32;6136;-73
2023/01/04 00:17:18;;;;;;;;;;;;;;;4.16;100.00;100477.94;296036;33;6091;-73
2023/01/04 00:17:29;;;;;;;;;;;;;;;4.15;100.00;100478.81;296971;33;1242;-74
2023/01/04 00:17:39;;;;;;;;;;;;;;;4.16;100.00;100480.53;295129;33;6340;-75
2023/01/04 00:17:49;;;;;;;;;;;;;;;4.16;100.00;100479.66;295107;33;6457;-74
2023/01/04 00:17:59;;;;;;;;;;;;;;;4.15;100.00;100476.22;294267;33;882;-74
2023/01/04 00:18:10;;;;;;;;;;;;;;;4.14;100.00;100477.09;292665;33;5313;-74
2023/01/04 00:18:20;;;;;;;;;;;;;;;4.13;100.00;100475.34;291513;33;4714;-74
2023/01/04 00:18:30;;;;;;;;;;;;;;;4.13;100.00;100479.66;294125;33;811;-74
2023/01/04 00:18:42;;;;;;;;;;;;;;;4.13;100.00;100475.34;289297;33;6288;-74
2023/01/04 00:18:52;;;;;;;;;;;;;;;4.13;100.00;100477.94;285030;34;7513;-75
2023/01/04 00:19:02;;;;;;;;;;;;;;;4.13;100.00;100480.53;286300;34;3470;-75
2023/01/04 00:19:13;;;;;;;;;;;;;;;4.12;100.00;100473.63;283896;34;1725;-75
2023/01/04 00:19:23;;;;;;;;;;;;;;;4.11;100.00;100481.41;278980;35;8340;-75
2023/01/04 00:19:33;;;;;;;;;;;;;;;4.12;100.00;100480.53;278956;34;8484;-75
2023/01/04 00:19:43;;;;;;;;;;;;;;;4.10;100.00;100480.53;283904;34;739;-75
2023/01/04 00:19:53;;;;;;;;;;;;;;;4.10;100.00;100483.13;279587;34;8147;-74
2023/01/04 00:20:04;;;;;;;;;;;;;;;4.09;100.00;100484.00;277056;35;8903;-74
2023/01/04 00:20:14;;;;;;;;;;;;;;;4.09;100.00;100481.41;277135;35;3573;-74
2023/01/04 00:20:24;;;;;;;;;;;;;;;4.09;100.00;100473.63;276975;35;7124;-74
2023/01/04 00:20:35;;;;;;;;;;;;;;;4.09;100.00;100478.81;276585;35;7144;-74
2023/01/04 00:20:45;;;;;;;;;;;;;;;4.08;100.00;100477.09;273791;36;835;-74
2023/01/04 00:22:41;;;;;;;;;;;;;;;4.09;100.00;100476.22;2467449;27;19933;-74
2023/01/04 00:22:51;;;;;;;;;;;;;;;4.09;100.00;100473.63;352361;28;3975;-73
2023/01/04 00:23:01;;;;;;;;;;;;;;;4.10;100.00;100474.50;347949;28;4927;-73
2023/01/04 00:23:11;;;;;;;;;;;;;;;4.10;100.00;100477.94;346677;28;3566;-73
2023/01/04 00:23:22;;;;;;;;;;;;;;;4.08;100.00;100474.50;346707;28;1827;-73
2023/01/04 00:23:32;;;;;;;;;;;;;;;4.07;100.00;100475.34;347444;28;3367;-73
2023/01/04 00:23:43;;;;;;;;;;;;;;;4.08;100.00;100477.09;347693;28;1297;-73
2023/01/04 00:23:53;;;;;;;;;;;;;;;4.07;100.00;100475.34;346761;28;4347;-73
2023/01/04 00:24:04;;;;;;;;;;;;;;;4.07;100.00;100480.53;345257;28;5890;-75
2023/01/04 00:24:14;;;;;;;;;;;;;;;4.08;100.00;100474.50;347091;28;3523;-74
2023/01/04 00:24:24;;;;;;;;;;;;;;;4.08;100.00;100476.22;347505;28;1743;-74
2023/01/04 00:24:34;;;;;;;;;;;;;;;4.07;100.00;100480.53;346765;28;3716;-74
2023/01/04 00:24:45;;;;;;;;;;;;;;;4.07;100.00;100479.69;346904;28;859;-73
2023/01/04 00:24:55;;;;;;;;;;;;;;;4.06;100.00;100473.63;344293;28;3960;-73
2023/01/04 00:25:05;;;;;;;;;;;;;;;4.05;100.00;100477.09;342103;28;6135;-74
2023/01/04 00:25:16;;;;;;;;;;;;;;;4.05;100.00;100482.25;344610;28;1807;-74
2023/01/04 00:25:26;;;;;;;;;;;;;;;4.05;100.00;100477.09;344809;28;1782;-74
2023/01/04 00:25:39;;;;;;;;;;;;;;;4.06;100.00;100477.94;344764;28;3964;-74
2023/01/04 00:25:49;;;;;;;;;;;;;;;4.06;100.00;100476.22;346074;28;1354;-74
2023/01/04 00:25:59;;;;;;;;;;;;;;;4.04;100.00;100475.34;343956;28;4449;-73
2023/01/04 00:26:10;;;;;;;;;;;;;;;4.04;100.00;100480.53;345131;28;3525;-73
2023/01/04 00:26:24;;;;;;;;;;;;;;;4.04;100.00;100470.19;348922;28;1416;-73
2023/01/04 00:26:35;;;;;;;;;;;;;;;4.04;100.00;100475.34;345059;28;3785;-75
2023/01/04 00:26:45;;;;;;;;;;;;;;;4.04;100.00;100470.19;343449;28;1367;-75
2023/01/04 00:26:55;;;;;;;;;;;;;;;4.05;100.00;100478.81;342883;28;4146;-74
2023/01/04 00:27:05;;;;;;;;;;;;;;;4.05;100.00;100476.22;339479;28;5982;-74
2023/01/04 00:27:15;;;;;;;;;;;;;;;4.06;100.00;100472.78;343228;28;3874;-74
2023/01/04 00:27:26;;;;;;;;;;;;;;;4.05;100.00;100473.63;345365;28;1665;-74
2023/01/04 00:27:36;;;;;;;;;;;;;;;4.04;100.00;100474.50;342391;28;3802;-74
2023/01/04 00:27:46;;;;;;;;;;;;;;;4.04;100.00;100480.53;345065;28;722;-75
2023/01/04 00:27:56;;;;;;;;;;;;;;;4.04;100.00;100475.34;341723;28;5505;-74
2023/01/04 00:28:07;;;;;;;;;;;;;;;4.03;100.00;100484.00;341729;28;5870;-74
2023/01/04 00:28:17;;;;;;;;;;;;;;;4.04;100.00;100474.50;342973;28;3367;-74
2023/01/04 00:28:27;;;;;;;;;;;;;;;4.03;100.00;100481.41;343372;28;2015;-74
2023/01/04 00:28:37;;;;;;;;;;;;;;;4.04;100.00;100479.69;343277;28;3832;-74
2023/01/04 00:28:47;;;;;;;;;;;;;;;4.04;100.00;100480.53;343480;28;1273;-74
2023/01/04 00:28:59;;;;;;;;;;;;;;;4.03;100.00;100478.81;339684;28;4491;-74
2023/01/04 00:29:10;;;;;;;;;;;;;;;4.04;100.00;100480.53;339350;29;3664;-74
2023/01/04 00:29:20;;;;;;;;;;;;;;;4.04;100.00;100477.94;338809;29;1283;-74
2023/01/04 00:29:31;;;;;;;;;;;;;;;4.05;100.00;100481.41;338033;29;3867;-74
2023/01/04 00:29:42;;;;;;;;;;;;;;;4.04;100.00;100480.53;341007;29;872;-76
2023/01/04 00:29:52;;;;;;;;;;;;;;;4.04;100.00;100483.13;338518;29;4352;-75
2023/01/04 00:30:02;;;;;;;;;;;;;;;4.04;100.00;100483.13;336990;29;6153;-75
2023/01/04 00:30:12;;;;;;;;;;;;;;;4.05;100.00;100481.41;338115;29;2463;-75
2023/01/04 00:30:23;;;;;;;;;;;;;;;4.05;100.00;100479.69;339194;29;1800;-74
2023/01/04 00:30:33;;;;;;;;;;;;;;;4.04;100.00;100477.94;337413;29;3820;-74
2023/01/04 00:30:43;;;;;;;;;;;;;;;4.03;100.00;100483.13;338429;29;777;-74
2023/01/04 00:30:53;;;;;;;;;;;;;;;4.02;100.00;100482.25;338803;29;3719;-74
2023/01/04 00:31:04;;;;;;;;;;;;;;;4.03;100.00;100484.00;335743;29;6115;-74
2023/01/04 00:31:14;;;;;;;;;;;;;;;4.03;100.00;100486.59;338127;29;3777;-75
2023/01/04 00:31:24;;;;;;;;;;;;;;;4.03;100.00;100483.13;337826;29;2559;-74
2023/01/04 00:31:35;;;;;;;;;;;;;;;4.01;100.00;100480.53;335637;29;1988;-74
2023/01/04 00:31:45;;;;;;;;;;;;;;;4.01;100.00;100480.53;333181;29;1023;-74
2023/01/04 00:31:55;;;;;;;;;;;;;;;4.01;100.00;100490.91;334339;29;4239;-75
2023/01/04 00:32:05;;;;;;;;;;;;;;;4.01;100.00;100490.91;332826;29;4377;-75
2023/01/04 00:32:16;;;;;;;;;;;;;;;4.01;100.00;100488.31;334767;29;3508;-75
2023/01/04 00:32:26;;;;;;;;;;;;;;;4.00;100.00;100486.59;332835;29;1657;-75
2023/01/04 00:32:36;;;;;;;;;;;;;;;3.99;100.00;100484.84;333445;29;6337;-75
2023/01/04 00:32:46;;;;;;;;;;;;;;;4.00;100.00;100489.16;332338;29;1831;-75
2023/01/04 00:32:57;;;;;;;;;;;;;;;4.00;100.00;100489.16;335076;29;4459;-74
2023/01/04 00:33:07;;;;;;;;;;;;;;;4.01;100.00;100485.72;336041;29;6342;-74
2023/01/04 00:33:17;;;;;;;;;;;;;;;4.02;100.00;100484.84;335061;29;2081;-74
2023/01/04 00:33:27;;;;;;;;;;;;;;;4.01;100.00;100486.59;335580;29;2021;-74
2023/01/04 00:33:38;;;;;;;;;;;;;;;4.00;100.00;100486.59;337882;29;3922;-74
2023/01/04 00:33:48;;;;;;;;;;;;;;;4.00;100.00;100486.59;337336;29;1624;-74
2023/01/04 00:33:59;;;;;;;;;;;;;;;4.00;100.00;100489.16;333622;29;4221;-75
2023/01/04 00:34:09;;;;;;;;;;;;;;;4.00;100.00;100495.22;331302;29;6078;-74
2023/01/04 00:34:20;;;;;;;;;;;;;;;4.00;100.00;100484.00;332236;29;1739;-74
2023/01/04 00:34:30;;;;;;;;;;;;;;;4.01;100.00;100496.06;330168;29;2593;-74
2023/01/04 00:34:40;;;;;;;;;;;;;;;4.02;100.00;100487.44;324484;30;1245;-74
2023/01/04 00:34:50;;;;;;;;;;;;;;;4.03;100.00;100491.75;324075;29;2106;-74
2023/01/04 00:35:00;;;;;;;;;;;;;;;4.03;100.00;100494.34;322936;30;5773;-74
2023/01/04 00:35:11;;;;;;;;;;;;;;;4.03;100.00;100488.31;321272;30;3450;-74
2023/01/04 00:35:21;;;;;;;;;;;;;;;4.02;100.00;100492.63;320423;30;4048;-74
2023/01/04 00:35:32;;;;;;;;;;;;;;;3.99;100.00;100493.47;321305;30;2683;-74
2023/01/04 00:35:42;;;;;;;;;;;;;;;3.98;100.00;100485.72;324862;30;3883;-74
2023/01/04 00:35:53;;;;;;;;;;;;;;;3.96;100.00;100487.44;325171;30;2793;-74
2023/01/04 00:36:09;;;;;;;;;;;;;;;3.95;100.00;100493.47;319925;30;6062;-75
2023/01/04 00:36:20;;;;;;;;;;;;;;;3.95;100.00;100488.31;322486;30;3665;-74
2023/01/04 00:36:30;;;;;;;;;;;;;;;3.93;100.00;100483.13;321869;30;1998;-74
2023/01/04 00:36:40;;;;;;;;;;;;;;;3.94;100.00;100484.84;318722;30;3984;-74
2023/01/04 00:36:50;;;;;;;;;;;;;;;3.94;100.00;100491.75;320257;30;2532;-74
2023/01/04 00:37:01;;;;;;;;;;;;;;;3.93;100.00;100492.63;317709;30;4376;-74
2023/01/04 00:37:11;;;;;;;;;;;;;;;3.93;100.00;100493.47;318254;31;3963;-74
2023/01/04 00:37:21;;;;;;;;;;;;;;;3.94;100.00;100494.34;316537;30;3334;-74
2023/01/04 00:37:31;;;;;;;;;;;;;;;3.95;100.00;100490.91;315940;31;3424;-74
2023/01/04 00:37:41;;;;;;;;;;;;;;;3.94;100.00;100484.84;316406;31;3993;-74
2023/01/04 00:37:52;;;;;;;;;;;;;;;3.96;100.00;100483.13;314503;31;3175;-74
2023/01/04 00:38:02;;;;;;;;;;;;;;;3.96;100.00;100482.25;311514;31;5599;-74
2023/01/04 00:38:12;;;;;;;;;;;;;;;3.95;100.00;100475.34;312012;31;3534;-74
2023/01/04 00:38:22;;;;;;;;;;;;;;;3.91;100.00;100481.41;310819;31;2564;-74
2023/01/04 00:38:33;;;;;;;;;;;;;;;3.88;100.00;100478.84;305517;31;2341;-74
2023/01/04 00:38:43;;;;;;;;;;;;;;;3.81;100.00;100482.28;304217;32;3666;-74
2023/01/04 00:39:05;;;;;;;;;;;;;;;3.72;100.00;100482.28;308294;31;3651;-74
2023/01/04 00:39:16;;;;;;;;;;;;;;;3.64;100.00;100480.53;305027;32;4222;-74
2023/01/04 00:39:28;;;;;;;;;;;;;;;3.66;100.00;100486.59;307802;32;3045;-74
2023/01/04 00:39:38;;;;;;;;;;;;;;;3.68;100.00;100490.03;307863;31;4595;-74
2023/01/04 00:39:48;;;;;;;;;;;;;;;3.72;100.00;100484.88;307315;31;4826;-75
2023/01/04 00:39:58;;;;;;;;;;;;;;;3.75;100.00;100482.28;304261;32;6638;-74
2023/01/04 00:40:09;;;;;;;;;;;;;;;3.78;100.00;100483.16;303971;32;4442;-74
2023/01/04 00:40:19;;;;;;;;;;;;;;;3.80;100.00;100480.56;303170;32;4335;-74
2023/01/04 00:40:29;;;;;;;;;;;;;;;3.82;100.00;100482.28;301968;32;1975;-74
2023/01/04 00:40:39;;;;;;;;;;;;;;;3.83;100.00;100481.44;302673;32;4060;-74
2023/01/04 00:40:50;;;;;;;;;;;;;;;3.86;100.00;100485.75;301019;32;3434;-75
2023/01/04 00:41:00;;;;;;;;;;;;;;;3.87;100.00;100488.34;296597;32;6117;-74
2023/01/04 00:41:10;;;;;;;;;;;;;;;3.88;100.00;100489.19;296972;33;3909;-75
2023/01/04 00:41:21;;;;;;;;;;;;;;;3.89;100.00;100490.94;298661;32;5557;-74
2023/01/04 00:41:47;;;;;;;;;;;;;;;3.90;100.00;100490.06;296893;33;6161;-75
2023/01/04 00:42:06;;;;;;;;;;;;;;;3.92;100.00;100480.53;288799;34;4071;-74
2023/01/04 00:42:17;;;;;;;;;;;;;;;3.94;100.00;100484.00;284551;34;5524;-74
2023/01/04 00:42:27;;;;;;;;;;;;;;;3.94;100.00;100484.00;285534;34;2012;-74
2023/01/04 00:42:37;;;;;;;;;;;;;;;3.93;100.00;100488.31;285319;34;6109;-74
2023/01/04 00:42:47;;;;;;;;;;;;;;;3.94;100.00;100481.41;284475;34;5031;-74
2023/01/04 00:42:58;;;;;;;;;;;;;;;3.94;100.00;100484.84;284018;34;971;-75
2023/01/04 00:43:08;;;;;;;;;;;;;;;3.93;100.00;100485.72;281708;34;6366;-74
2023/01/04 00:43:18;;;;;;;;;;;;;;;3.94;100.00;100484.00;281803;34;6161;-74
2023/01/04 00:43:28;;;;;;;;;;;;;;;3.97;100.00;100494.34;280137;35;3468;-74
2023/01/04 00:43:38;;;;;;;;;;;;;;;3.96;100.00;100488.31;279927;35;7842;-74
2023/01/04 00:43:49;;;;;;;;;;;;;;;3.97;100.00;100489.16;278220;35;8979;-74
2023/01/04 00:44:02;;;;;;;;;;;;;;;3.97;100.00;100481.41;278105;35;4210;-74
2023/01/04 00:44:12;;;;;;;;;;;;;;;3.97;100.00;100487.44;274498;35;6517;-74
2023/01/04 00:44:22;;;;;;;;;;;;;;;3.98;100.00;100484.00;274497;35;8415;-74
2023/01/04 00:44:33;;;;;;;;;;;;;;;3.99;100.00;100479.69;274543;35;7152;-74
2023/01/04 00:44:43;;;;;;;;;;;;;;;3.99;100.00;100477.09;274622;35;3843;-74
2023/01/04 00:44:53;;;;;;;;;;;;;;;4.00;100.00;100486.59;271927;35;9075;-74
2023/01/04 00:46:25;;;;;;;;;;;;;;;4.00;100.00;100484.00;2497325;27;19929;-74
2023/01/04 00:46:36;;;;;;;;;;;;;;;4.00;100.00;100484.00;354590;27;3526;-74
2023/01/04 00:46:46;;;;;;;;;;;;;;;4.00;100.00;100484.00;353534;28;803;-74
2023/01/04 00:46:57;;;;;;;;;;;;;;;3.99;100.00;100490.03;350081;28;4291;-74
2023/01/04 00:47:07;;;;;;;;;;;;;;;3.99;100.00;100487.44;348356;28;5593;-74
2023/01/04 00:47:17;;;;;;;;;;;;;;;3.99;100.00;100483.13;348678;28;3875;-74
2023/01/04 00:47:27;;;;;;;;;;;;;;;3.99;100.00;100483.13;347679;28;1986;-74
2023/01/04 00:47:38;;;;;;;;;;;;;;;4.01;100.00;100480.53;346509;28;3620;-74
2023/01/04 00:47:48;;;;;;;;;;;;;;;4.01;100.00;100486.59;346475;28;1503;-74
2023/01/04 00:47:58;;;;;;;;;;;;;;;4.01;100.00;100491.75;347892;28;789;-74
2023/01/04 00:48:08;;;;;;;;;;;;;;;4.00;100.00;100484.00;344387;28;5625;-74
2023/01/04 00:48:18;;;;;;;;;;;;;;;4.01;100.00;100488.31;347773;28;3704;-74
2023/01/04 00:48:29;;;;;;;;;;;;;;;4.01;100.00;100488.31;350687;28;789;-74
2023/01/04 00:48:39;;;;;;;;;;;;;;;4.04;100.00;100490.03;349078;28;2150;-74
2023/01/04 00:48:49;;;;;;;;;;;;;;;4.03;100.00;100486.59;348916;28;3296;-74
2023/01/04 00:49:00;;;;;;;;;;;;;;;4.03;100.00;100488.31;349281;28;895;-74
2023/01/04 00:49:10;;;;;;;;;;;;;;;4.03;100.00;100486.59;347846;28;4233;-74
2023/01/04 00:49:20;;;;;;;;;;;;;;;4.03;100.00;100489.16;348243;28;3159;-74
2023/01/04 00:49:30;;;;;;;;;;;;;;;4.03;100.00;100484.00;349245;28;867;-74
2023/01/04 00:49:41;;;;;;;;;;;;;;;4.04;100.00;100483.13;347828;28;1915;-74
2023/01/04 00:49:51;;;;;;;;;;;;;;;4.03;100.00;100489.16;348730;28;3844;-74
2023/01/04 00:50:02;;;;;;;;;;;;;;;4.05;100.00;100481.41;346438;28;4031;-74
2023/01/04 00:50:13;;;;;;;;;;;;;;;4.05;100.00;100490.03;345064;28;5124;-74
2023/01/04 00:50:23;;;;;;;;;;;;;;;4.05;100.00;100484.84;345771;28;3790;-74
2023/01/04 00:50:34;;;;;;;;;;;;;;;4.05;100.00;100481.41;346505;28;2540;-74
2023/01/04 00:50:45;;;;;;;;;;;;;;;4.05;100.00;100486.59;346070;28;5770;-74
2023/01/04 00:50:55;;;;;;;;;;;;;;;4.05;100.00;100482.25;347810;28;1486;-74
2023/01/04 00:51:05;;;;;;;;;;;;;;;4.03;100.00;100484.00;346853;28;4206;-74
2023/01/04 00:51:16;;;;;;;;;;;;;;;4.02;100.00;100487.44;348236;28;3081;-74
2023/01/04 00:51:26;;;;;;;;;;;;;;;4.03;100.00;100485.72;350195;28;6169;-74
2023/01/04 00:51:37;;;;;;;;;;;;;;;4.02;100.00;100492.63;350383;28;1983;-75
2023/01/04 00:51:47;;;;;;;;;;;;;;;4.01;100.00;100485.72;351054;28;3833;-75
2023/01/04 00:51:58;;;;;;;;;;;;;;;4.01;100.00;100490.91;352129;28;780;-75
2023/01/04 00:52:08;;;;;;;;;;;;;;;3.99;100.00;100482.25;346240;28;5178;-74
2023/01/04 00:52:18;;;;;;;;;;;;;;;3.98;100.00;100484.00;349204;28;3315;-74
2023/01/04 00:52:29;;;;;;;;;;;;;;;3.97;100.00;100484.00;350588;28;1885;-75
2023/01/04 00:52:39;;;;;;;;;;;;;;;3.97;100.00;100481.41;350202;28;3235;-74
2023/01/04 00:52:49;;;;;;;;;;;;;;;3.96;100.00;100487.44;346638;28;1610;-74
2023/01/04 00:52:59;;;;;;;;;;;;;;;3.95;100.00;100486.56;345196;28;4126;-73
2023/01/04 00:53:10;;;;;;;;;;;;;;;3.95;100.00;100490.91;344679;28;5577;-73
2023/01/04 00:53:20;;;;;;;;;;;;;;;3.95;100.00;100486.56;344862;28;2620;-73
2023/01/04 00:53:30;;;;;;;;;;;;;;;3.95;100.00;100490.91;344494;28;1753;-73
2023/01/04 00:53:40;;;;;;;;;;;;;;;3.95;100.00;100488.31;342910;28;3449;-73
2023/01/04 00:53:51;;;;;;;;;;;;;;;3.95;100.00;100491.75;345437;28;1196;-73
2023/01/04 00:54:02;;;;;;;;;;;;;;;3.96;100.00;100488.31;345831;28;5664;-73
2023/01/04 00:54:12;;;;;;;;;;;;;;;3.96;100.00;100482.25;344732;28;6050;-74
2023/01/04 00:54:23;;;;;;;;;;;;;;;3.96;100.00;100482.25;347381;28;1238;-74
2023/01/04 00:54:33;;;;;;;;;;;;;;;3.96;100.00;100487.44;345605;28;2543;-74
2023/01/04 00:54:43;;;;;;;;;;;;;;;3.95;100.00;100483.13;345071;28;3395;-74
2023/01/04 00:54:53;;;;;;;;;;;;;;;3.95;100.00;100485.72;343160;28;3978;-74
2023/01/04 00:55:04;;;;;;;;;;;;;;;3.94;100.00;100484.00;338196;29;5895;-73
2023/01/04 00:55:14;;;;;;;;;;;;;;;3.93;100.00;100485.72;336348;29;3330;-73
2023/01/04 00:55:24;;;;;;;;;;;;;;;3.94;100.00;100487.44;337081;29;2011;-74
2023/01/04 00:55:34;;;;;;;;;;;;;;;3.94;100.00;100484.00;336978;29;3589;-74
2023/01/04 00:55:45;;;;;;;;;;;;;;;3.93;100.00;100482.25;338952;29;1254;-73
2023/01/04 00:55:59;;;;;;;;;;;;;;;3.93;100.00;100479.66;338444;29;959;-73
2023/01/04 00:56:09;;;;;;;;;;;;;;;3.92;100.00;100483.13;334342;29;5564;-74
2023/01/04 00:56:20;;;;;;;;;;;;;;;3.92;100.00;100485.72;334243;29;2740;-74
2023/01/04 00:56:30;;;;;;;;;;;;;;;3.90;100.00;100487.47;332885;29;2988;-74
2023/01/04 00:56:40;;;;;;;;;;;;;;;3.90;100.00;100498.66;330973;29;3459;-74
2023/01/04 00:56:50;;;;;;;;;;;;;;;3.90;100.00;100497.81;332269;29;2088;-74
2023/01/04 00:57:01;;;;;;;;;;;;;;;3.83;100.00;100496.97;326076;29;6017;-74
2023/01/04 00:57:11;;;;;;;;;;;;;;;3.84;100.00;100497.81;328439;30;3452;-74
2023/01/04 00:57:21;;;;;;;;;;;;;;;3.86;100.00;100490.91;328612;29;2102;-74
2023/01/04 00:57:31;;;;;;;;;;;;;;;3.85;100.00;100489.19;329531;29;2043;-74
2023/01/04 00:57:42;;;;;;;;;;;;;;;3.83;100.00;100488.31;330248;29;3593;-74
2023/01/04 00:57:52;;;;;;;;;;;;;;;3.83;100.00;100490.91;334076;29;906;-74
2023/01/04 00:58:02;;;;;;;;;;;;;;;3.82;100.00;100492.63;328836;29;5726;-73
2023/01/04 00:58:12;;;;;;;;;;;;;;;3.82;100.00;100490.06;330689;29;3410;-73
2023/01/04 00:58:22;;;;;;;;;;;;;;;3.82;100.00;100481.41;330486;29;1747;-75
2023/01/04 00:58:33;;;;;;;;;;;;;;;3.84;100.00;100487.47;328494;29;2365;-74